createdAt,value
2022-09-18T00:00:44.178Z,94.86
2022-09-18T00:03:48.561Z,95.33
2022-09-18T00:06:53.499Z,95.79
2022-09-18T00:09:57.120Z,95.60
2022-09-18T00:13:01.199Z,95.54
2022-09-18T00:16:06.736Z,96.68
2022-09-18T00:19:11.701Z,96.47
2022-09-18T00:22:16.687Z,96.83
2022-09-18T00:25:20.303Z,97.37
2022-09-18T00:28:23.848Z,97.05
2022-09-18T00:31:30.918Z,97.46
2022-09-18T00:34:34.738Z,97.52
2022-09-18T00:37:39.607Z,97.53
2022-09-18T00:40:43.169Z,97.48
2022-09-18T00:43:47.322Z,97.85
2022-09-18T00:46:52.151Z,97.68
2022-09-18T00:50:04.655Z,98.01
2022-09-18T00:53:09.818Z,97.44
2022-09-18T00:56:16.919Z,97.15
2022-09-18T00:59:28.208Z,96.97
2022-09-18T01:02:31.864Z,96.75
2022-09-18T01:06:04.236Z,96.57
2022-09-18T01:09:28.307Z,95.84
2022-09-18T01:12:41.557Z,96.40
2022-09-18T01:15:52.530Z,95.90
2022-09-18T01:19:11.644Z,95.11
2022-09-18T01:22:35.782Z,95.40
2022-09-18T01:26:05.642Z,94.93
2022-09-18T01:29:21.591Z,94.31
2022-09-18T01:32:31.467Z,94.54
2022-09-18T01:35:42.580Z,95.09
2022-09-18T01:38:53.500Z,94.79
2022-09-18T01:42:02.145Z,94.91
2022-09-18T01:45:12.382Z,94.25
2022-09-18T01:48:23.647Z,94.43
2022-09-18T01:51:35.283Z,94.77
2022-09-18T01:54:43.404Z,94.56
2022-09-18T01:57:54.541Z,94.71
2022-09-18T02:01:06.942Z,94.94
2022-09-18T02:04:18.221Z,95.82
2022-09-18T02:07:30.907Z,95.57
2022-09-18T02:10:39.639Z,95.61
2022-09-18T02:13:50.107Z,95.42
2022-09-18T02:17:02.698Z,95.56
2022-09-18T02:20:13.937Z,95.52
2022-09-18T02:23:18.936Z,95.39
2022-09-18T02:26:23.439Z,95.82
2022-09-18T02:29:28.467Z,95.29
2022-09-18T02:32:36.373Z,94.44
2022-09-18T02:35:50.223Z,94.30
2022-09-18T02:39:10.646Z,93.88
2022-09-18T02:42:33.718Z,93.91
2022-09-18T02:45:50.012Z,93.92
2022-09-18T02:49:10.034Z,93.49
2022-09-18T02:52:25.707Z,93.15
2022-09-18T02:55:41.811Z,93.68
2022-09-18T02:58:52.825Z,93.70
2022-09-18T03:01:58.875Z,94.34
2022-09-18T03:05:04.100Z,94.44
2022-09-18T03:08:08.038Z,94.44
2022-09-18T03:11:11.860Z,94.96
2022-09-18T03:14:15.539Z,94.99
2022-09-18T03:17:19.244Z,94.94
2022-09-18T03:20:24.385Z,94.89
2022-09-18T03:23:28.250Z,95.10
2022-09-18T03:26:31.863Z,95.32
2022-09-18T03:29:35.498Z,95.46
2022-09-18T03:32:39.186Z,95.87
2022-09-18T03:35:44.692Z,95.72
2022-09-18T03:38:48.206Z,96.49
2022-09-18T03:41:51.759Z,96.10
2022-09-18T03:44:56.535Z,96.21
2022-09-18T03:48:00.078Z,96.20
2022-09-18T03:51:05.191Z,96.17
2022-09-18T03:54:08.779Z,96.29
2022-09-18T03:57:12.443Z,96.67
2022-09-18T04:00:16.775Z,96.11
2022-09-18T04:03:20.344Z,96.34
2022-09-18T04:06:25.638Z,96.26
2022-09-18T04:09:29.210Z,96.19
2022-09-18T04:12:32.764Z,96.75
2022-09-18T04:15:36.312Z,95.89
2022-09-18T04:18:40.374Z,96.31
2022-09-18T04:21:45.452Z,96.27
2022-09-18T04:24:50.531Z,95.77
2022-09-18T04:27:54.167Z,95.47
2022-09-18T04:30:57.776Z,95.42
2022-09-18T04:34:01.575Z,95.11
2022-09-18T04:37:10.122Z,95.00
2022-09-18T04:40:14.288Z,95.70
2022-09-18T04:43:19.231Z,95.13
2022-09-18T04:46:24.145Z,95.11
2022-09-18T04:49:27.796Z,94.95
2022-09-18T04:52:32.820Z,95.52
2022-09-18T04:55:36.567Z,95.09
2022-09-18T04:58:40.147Z,95.60
2022-09-18T05:01:43.778Z,95.72
2022-09-18T05:04:47.363Z,95.92
2022-09-18T05:07:52.419Z,96.34
2022-09-18T05:10:55.952Z,96.25
2022-09-18T05:13:59.901Z,96.20
2022-09-18T05:17:03.494Z,96.78
2022-09-18T05:20:08.590Z,96.81
2022-09-18T05:23:13.571Z,96.76
2022-09-18T05:26:17.165Z,96.60
2022-09-18T05:29:20.775Z,96.51
2022-09-18T05:32:24.563Z,96.84
2022-09-18T05:35:30.598Z,96.75
2022-09-18T05:38:36.128Z,97.17
2022-09-18T05:41:39.651Z,96.93
2022-09-18T05:44:43.292Z,96.64
2022-09-18T05:47:56.301Z,96.94
2022-09-18T05:50:59.999Z,97.02
2022-09-18T05:54:05.367Z,96.48
2022-09-18T05:57:09.139Z,97.10
2022-09-18T06:00:15.034Z,96.52
2022-09-18T06:03:19.433Z,96.78
2022-09-18T06:06:23.012Z,96.91
2022-09-18T06:09:28.634Z,96.75
2022-09-18T06:12:32.194Z,96.17
2022-09-18T06:15:37.574Z,96.52
2022-09-18T06:18:41.083Z,95.83
2022-09-18T06:21:44.718Z,95.89
2022-09-18T06:24:49.675Z,96.20
2022-09-18T06:27:58.737Z,95.33
2022-09-18T06:31:04.435Z,95.11
2022-09-18T06:34:08.118Z,94.79
2022-09-18T06:37:12.609Z,94.77
2022-09-18T06:40:17.878Z,94.03
2022-09-18T06:43:22.051Z,93.90
2022-09-18T06:46:25.845Z,94.01
2022-09-18T06:49:29.429Z,94.48
2022-09-18T06:52:33.499Z,94.91
2022-09-18T06:55:38.366Z,95.45
2022-09-18T06:58:41.949Z,96.17
2022-09-18T07:01:47.576Z,96.11
2022-09-18T07:04:52.044Z,95.77
2022-09-18T07:07:55.866Z,95.62
2022-09-18T07:11:03.761Z,95.54
2022-09-18T07:14:08.287Z,95.19
2022-09-18T07:17:18.052Z,94.91
2022-09-18T07:20:22.952Z,94.57
2022-09-18T07:23:26.898Z,95.08
2022-09-18T07:26:31.879Z,94.99
2022-09-18T07:29:35.552Z,95.06
2022-09-18T07:32:39.212Z,95.19
2022-09-18T07:35:42.863Z,95.73
2022-09-18T07:38:46.446Z,95.36
2022-09-18T07:41:51.552Z,95.16
2022-09-18T07:44:55.044Z,94.99
2022-09-18T07:48:01.917Z,94.63
2022-09-18T07:51:06.344Z,93.91
2022-09-18T07:54:09.911Z,92.86
2022-09-18T07:57:14.937Z,92.31
2022-09-18T08:00:18.651Z,92.27
2022-09-18T08:03:22.194Z,91.95
2022-09-18T08:06:25.843Z,91.21
2022-09-18T08:09:29.354Z,91.30
2022-09-18T08:12:34.530Z,91.35
2022-09-18T08:15:40.879Z,91.38
2022-09-18T08:18:44.428Z,91.31
2022-09-18T08:21:47.995Z,91.08
2022-09-18T08:24:51.609Z,91.02
2022-09-18T08:28:01.053Z,90.61
2022-09-18T08:31:04.970Z,90.26
2022-09-18T08:34:09.472Z,88.67
2022-09-18T08:37:13.086Z,88.08
2022-09-18T08:40:19.056Z,87.46
2022-09-18T08:43:48.087Z,86.41
2022-09-18T08:47:04.177Z,85.74
2022-09-18T08:50:19.540Z,84.96
2022-09-18T08:53:30.646Z,84.32
2022-09-18T08:56:35.487Z,83.72
2022-09-18T08:59:46.643Z,82.49
2022-09-18T09:02:53.455Z,81.91
2022-09-18T09:06:01.576Z,80.78
2022-09-18T09:09:24.854Z,79.43
2022-09-18T09:12:41.212Z,78.85
2022-09-18T09:15:57.738Z,77.72
2022-09-18T09:19:03.816Z,76.80
2022-09-18T09:22:20.060Z,76.78
2022-09-18T09:25:36.672Z,77.44
2022-09-18T09:28:52.748Z,77.69
2022-09-18T09:32:06.375Z,77.70
2022-09-18T09:35:30.243Z,78.03
2022-09-18T09:38:47.196Z,77.23
2022-09-18T09:41:57.859Z,76.81
2022-09-18T09:45:13.085Z,75.23
2022-09-18T09:48:28.934Z,74.95
2022-09-18T09:51:52.508Z,74.08
2022-09-18T09:55:01.530Z,73.45
2022-09-18T09:58:17.114Z,73.84
2022-09-18T10:01:27.696Z,75.61
2022-09-18T10:04:46.030Z,78.07
2022-09-18T10:07:58.756Z,81.53
2022-09-18T10:11:08.794Z,82.86
2022-09-18T10:14:21.006Z,84.13
2022-09-18T10:17:26.508Z,85.42
2022-09-18T10:20:34.281Z,85.46
2022-09-18T10:23:41.409Z,85.98
2022-09-18T10:26:50.960Z,86.52
2022-09-18T10:29:55.227Z,86.00
2022-09-18T10:32:59.850Z,87.30
2022-09-18T10:36:19.509Z,86.57
2022-09-18T10:39:31.716Z,86.44
2022-09-18T10:42:39.272Z,85.04
2022-09-18T10:45:58.039Z,84.22
2022-09-18T10:49:23.951Z,82.84
2022-09-18T10:52:36.226Z,81.52
2022-09-18T10:55:55.626Z,81.16
2022-09-18T10:59:32.127Z,80.66
2022-09-18T11:02:42.850Z,80.04
2022-09-18T11:05:55.501Z,79.11
2022-09-18T11:09:04.056Z,78.10
2022-09-18T11:12:17.517Z,77.95
2022-09-18T11:15:37.647Z,76.93
2022-09-18T11:18:41.365Z,75.03
2022-09-18T11:21:47.704Z,74.10
2022-09-18T11:25:18.578Z,73.46
2022-09-18T11:28:29.435Z,76.65
2022-09-18T11:31:48.029Z,78.44
2022-09-18T11:34:55.437Z,80.29
2022-09-18T11:38:06.396Z,80.95
2022-09-18T11:41:14.108Z,81.34
2022-09-18T11:44:25.836Z,81.34
2022-09-18T11:47:42.447Z,82.04
2022-09-18T11:50:47.075Z,82.90
2022-09-18T11:53:57.820Z,83.75
2022-09-18T11:57:06.897Z,84.06
2022-09-18T12:00:19.258Z,84.49
2022-09-18T12:03:35.906Z,84.53
2022-09-18T12:06:51.176Z,84.46
2022-09-18T12:10:07.405Z,83.71
2022-09-18T12:13:40.047Z,82.98
2022-09-18T12:16:52.473Z,82.52
2022-09-18T12:20:06.339Z,82.06
2022-09-18T12:23:16.426Z,80.41
2022-09-18T12:26:31.770Z,77.95
2022-09-18T12:30:07.157Z,75.96
2022-09-18T12:33:33.458Z,71.96
2022-09-18T12:37:02.915Z,67.73
2022-09-18T12:41:00.827Z,63.55
2022-09-18T12:44:37.290Z,58.60
2022-09-18T12:48:05.579Z,55.42
2022-09-18T12:51:32.905Z,56.01
2022-09-18T12:55:06.897Z,58.03
2022-09-18T12:58:35.139Z,58.93
2022-09-18T13:01:47.666Z,60.02
2022-09-18T13:04:59.559Z,60.37
2022-09-18T13:08:11.846Z,60.50
2022-09-18T13:11:37.756Z,59.85
2022-09-18T13:14:49.228Z,59.48
2022-09-18T13:17:59.472Z,59.46
2022-09-18T13:21:11.362Z,56.63
2022-09-18T13:24:21.162Z,55.47
2022-09-18T13:27:27.591Z,55.48
2022-09-18T13:30:33.654Z,56.13
2022-09-18T13:33:37.371Z,57.05
2022-09-18T13:36:46.346Z,58.22
2022-09-18T13:40:09.234Z,58.99
2022-09-18T13:43:42.515Z,61.22
2022-09-18T13:46:46.912Z,66.27
2022-09-18T13:49:55.808Z,69.03
2022-09-18T13:53:04.042Z,71.01
2022-09-18T13:56:09.835Z,71.85
2022-09-18T13:59:24.139Z,72.84
2022-09-18T14:02:35.679Z,74.01
2022-09-18T14:05:41.635Z,73.96
2022-09-18T14:08:46.607Z,73.29
2022-09-18T14:11:50.407Z,73.17
2022-09-18T14:15:04.071Z,72.38
2022-09-18T14:18:15.264Z,71.89
2022-09-18T14:21:28.545Z,71.00
2022-09-18T14:25:00.019Z,69.70
2022-09-18T14:28:08.159Z,69.43
2022-09-18T14:31:19.687Z,69.53
2022-09-18T14:34:32.086Z,69.50
2022-09-18T14:37:37.899Z,69.56
2022-09-18T14:40:42.982Z,68.67
2022-09-18T14:43:52.113Z,67.69
2022-09-18T14:46:58.601Z,67.49
2022-09-18T14:50:02.283Z,67.21
2022-09-18T14:53:24.449Z,67.07
2022-09-18T14:56:35.808Z,67.17
2022-09-18T14:59:39.712Z,67.07
2022-09-18T15:02:43.586Z,65.91
2022-09-18T15:05:54.722Z,65.25
2022-09-18T15:08:59.459Z,65.64
2022-09-18T15:12:04.892Z,65.73
2022-09-18T15:15:29.082Z,66.59
2022-09-18T15:18:42.515Z,66.09
2022-09-18T15:21:49.516Z,66.87
2022-09-18T15:24:53.405Z,67.00
2022-09-18T15:28:04.270Z,68.14
2022-09-18T15:31:12.529Z,70.50
2022-09-18T15:34:21.686Z,73.37
2022-09-18T15:37:28.686Z,75.79
2022-09-18T15:40:36.118Z,77.54
2022-09-18T15:43:43.502Z,79.42
2022-09-18T15:46:47.357Z,80.75
2022-09-18T15:49:52.050Z,81.76
2022-09-18T15:53:08.898Z,82.83
2022-09-18T15:56:22.062Z,84.00
2022-09-18T15:59:33.749Z,84.71
2022-09-18T16:02:39.499Z,85.99
2022-09-18T16:05:55.026Z,86.28
2022-09-18T16:09:00.171Z,86.76
2022-09-18T16:12:41.974Z,87.26
2022-09-18T16:16:24.211Z,87.54
2022-09-18T16:19:29.069Z,87.70
2022-09-18T16:22:41.906Z,87.45
2022-09-18T16:25:47.707Z,87.25
2022-09-18T16:28:54.612Z,87.03
2022-09-18T16:31:59.661Z,86.84
2022-09-18T16:35:07.421Z,86.28
2022-09-18T16:38:11.263Z,86.04
2022-09-18T16:41:14.928Z,85.99
2022-09-18T16:44:19.454Z,86.18
2022-09-18T16:47:25.775Z,85.59
2022-09-18T16:50:29.577Z,85.48
2022-09-18T16:53:35.375Z,85.19
2022-09-18T16:56:44.658Z,85.12
2022-09-18T16:59:51.396Z,84.91
2022-09-18T17:02:57.668Z,85.21
2022-09-18T17:06:02.710Z,85.23
2022-09-18T17:09:07.743Z,85.42
2022-09-18T17:12:11.365Z,86.15
2022-09-18T17:15:15.027Z,86.36
2022-09-18T17:18:20.147Z,86.96
2022-09-18T17:21:25.148Z,87.54
2022-09-18T17:24:28.987Z,88.19
2022-09-18T17:27:32.760Z,88.69
2022-09-18T17:30:36.324Z,89.61
2022-09-18T17:33:44.290Z,90.03
2022-09-18T17:36:48.045Z,90.89
2022-09-18T17:39:51.661Z,92.14
2022-09-18T17:42:55.274Z,93.05
2022-09-18T17:46:01.058Z,93.82
2022-09-18T17:49:06.682Z,94.04
2022-09-18T17:52:10.315Z,95.21
2022-09-18T17:55:14.093Z,95.54
2022-09-18T17:58:18.014Z,96.71
2022-09-18T18:01:22.410Z,97.20
2022-09-18T18:04:27.432Z,97.48
2022-09-18T18:07:31.111Z,97.86
2022-09-18T18:10:37.897Z,98.41
2022-09-18T18:13:44.726Z,99.35
2022-09-18T18:16:52.393Z,100.00
2022-09-18T18:19:57.751Z,100.00
2022-09-18T18:23:01.315Z,100.00
2022-09-18T18:26:07.339Z,100.00
2022-09-18T18:29:13.166Z,100.00
2022-09-18T18:32:16.779Z,100.00
2022-09-18T18:35:21.770Z,100.00
2022-09-18T18:38:25.403Z,100.00
2022-09-18T18:41:31.882Z,100.00
2022-09-18T18:44:36.616Z,100.00
2022-09-18T18:47:40.241Z,100.00
2022-09-18T18:50:45.326Z,100.00
2022-09-18T18:53:48.883Z,100.00
2022-09-18T18:56:52.803Z,100.00
2022-09-18T18:59:57.281Z,100.00
2022-09-18T19:03:02.421Z,100.00
2022-09-18T19:06:07.838Z,100.00
2022-09-18T19:09:18.085Z,100.00
2022-09-18T19:12:23.559Z,100.00
2022-09-18T19:15:28.263Z,100.00
2022-09-18T19:18:31.850Z,100.00
2022-09-18T19:21:38.755Z,100.00
2022-09-18T19:24:42.632Z,100.00
2022-09-18T19:27:46.211Z,100.00
2022-09-18T19:30:49.791Z,100.00
2022-09-18T19:33:54.021Z,100.00
2022-09-18T19:36:59.817Z,100.00
2022-09-18T19:40:03.832Z,100.00
2022-09-18T19:43:16.266Z,100.00
2022-09-18T19:46:27.304Z,100.00
2022-09-18T19:49:37.196Z,100.00
2022-09-18T19:52:45.353Z,100.00
2022-09-18T19:55:50.325Z,100.00
2022-09-18T19:58:54.071Z,100.00
2022-09-18T20:01:57.946Z,100.00
2022-09-18T20:05:02.146Z,100.00
2022-09-18T20:08:08.256Z,100.00
2022-09-18T20:11:11.854Z,100.00
2022-09-18T20:14:16.397Z,100.00
2022-09-18T20:17:20.088Z,100.00
2022-09-18T20:20:23.950Z,100.00
2022-09-18T20:23:28.943Z,100.00
2022-09-18T20:26:32.923Z,100.00
2022-09-18T20:29:36.539Z,100.00
2022-09-18T20:32:40.597Z,100.00
2022-09-18T20:35:45.501Z,100.00
2022-09-18T20:38:52.211Z,100.00
2022-09-18T20:42:00.397Z,100.00
2022-09-18T20:45:04.169Z,100.00
2022-09-18T20:48:07.691Z,100.00
2022-09-18T20:51:14.070Z,100.00
2022-09-18T20:54:23.215Z,100.00
2022-09-18T20:57:26.750Z,100.00
2022-09-18T21:00:30.415Z,100.00
2022-09-18T21:03:33.959Z,100.00
2022-09-18T21:06:38.395Z,100.00
2022-09-18T21:09:43.330Z,100.00
2022-09-18T21:12:47.505Z,100.00
2022-09-18T21:15:51.097Z,100.00
2022-09-18T21:18:59.097Z,100.00
2022-09-18T21:22:02.635Z,100.00
2022-09-18T21:25:09.136Z,100.00
2022-09-18T21:28:13.289Z,100.00
2022-09-18T21:31:16.973Z,100.00
2022-09-18T21:34:24.618Z,100.00
2022-09-18T21:37:28.289Z,100.00
2022-09-18T21:40:33.331Z,100.00
2022-09-18T21:43:38.898Z,100.00
2022-09-18T21:46:42.888Z,100.00
2022-09-18T21:49:46.490Z,100.00
2022-09-18T21:52:50.143Z,100.00
2022-09-18T21:56:01.730Z,100.00
2022-09-18T21:59:06.066Z,100.00
2022-09-18T22:02:11.722Z,100.00
2022-09-18T22:05:16.123Z,100.00
2022-09-18T22:08:20.756Z,100.00
2022-09-18T22:11:28.419Z,100.00
2022-09-18T22:14:34.755Z,100.00
2022-09-18T22:17:39.190Z,100.00
2022-09-18T22:20:42.890Z,100.00
2022-09-18T22:23:48.161Z,100.00
2022-09-18T22:26:57.133Z,100.00
2022-09-18T22:30:00.690Z,100.00
2022-09-18T22:33:05.588Z,100.00
2022-09-18T22:36:09.975Z,100.00
2022-09-18T22:39:14.321Z,100.00
2022-09-18T22:42:19.692Z,100.00
2022-09-18T22:45:23.414Z,100.00
2022-09-18T22:48:26.961Z,100.00
2022-09-18T22:51:30.520Z,100.00
2022-09-18T22:54:34.189Z,100.00
2022-09-18T22:57:39.455Z,100.00
2022-09-18T23:00:42.987Z,100.00
2022-09-18T23:03:49.252Z,100.00
2022-09-18T23:06:53.190Z,100.00
2022-09-18T23:09:56.857Z,100.00
2022-09-18T23:13:02.736Z,100.00
2022-09-18T23:16:09.602Z,100.00
2022-09-18T23:19:17.070Z,100.00
2022-09-18T23:22:22.260Z,100.00
2022-09-18T23:25:25.856Z,100.00
2022-09-18T23:28:34.379Z,100.00
2022-09-18T23:31:41.273Z,100.00
2022-09-18T23:34:44.935Z,100.00
2022-09-18T23:37:49.094Z,100.00
2022-09-18T23:41:00.535Z,100.00
2022-09-18T23:44:08.595Z,100.00
2022-09-18T23:47:12.766Z,100.00
2022-09-18T23:50:16.601Z,100.00
2022-09-18T23:53:20.879Z,100.00
2022-09-18T23:56:25.393Z,100.00
2022-09-18T23:59:30.446Z,100.00
